Time;durP1;ratioP1;P1;durP2;ratioP2;P2;SDS_P1;SDS_P2;PMS_P1;PMS_P2;Temp;Humidity;BMP_temperature;BMP_pressure;BME280_temperature;BME280_humidity;BME280_pressure;Samples;Min_cycle;Max_cycle;Signal;HPM_P1;HPM_P2
2024/01/26 00:01:24;;;;;;;2.55;1.30;;;13.20;99.90;;;;;;5013491;28;20563;-16
2024/01/26 00:03:51;;;;;;;2.13;1.30;;;13.20;99.90;;;;;;5015465;28;20038;-17
2024/01/26 00:06:17;;;;;;;1.60;1.20;;;13.30;99.90;;;;;;5000922;28;20366;-16
2024/01/26 00:08:43;;;;;;;2.33;1.52;;;13.30;99.90;;;;;;5010297;28;20109;-17
2024/01/26 00:11:15;;;;;;;3.47;1.40;;;13.30;99.90;;;;;;5013169;28;20113;-16
2024/01/26 00:13:41;;;;;;;2.05;1.40;;;13.30;99.90;;;;;;5014006;28;20254;-16
2024/01/26 00:16:07;;;;;;;2.55;1.60;;;13.30;99.90;;;;;;4996698;28;20034;-16
2024/01/26 00:18:33;;;;;;;3.07;1.73;;;13.30;99.90;;;;;;5013319;28;20034;-16
2024/01/26 00:20:59;;;;;;;2.70;1.40;;;13.30;99.90;;;;;;5011049;28;20037;-16
2024/01/26 00:23:25;;;;;;;2.42;1.40;;;13.30;99.90;;;;;;4996386;28;20044;-17
2024/01/26 00:25:50;;;;;;;2.43;1.77;;;13.20;99.90;;;;;;4999645;28;20030;-16
2024/01/26 00:28:16;;;;;;;1.95;1.42;;;13.20;99.90;;;;;;5013128;28;20512;-16
2024/01/26 00:30:42;;;;;;;2.70;1.40;;;13.20;99.90;;;;;;5010985;28;20041;-16
2024/01/26 00:33:07;;;;;;;3.35;1.70;;;13.20;99.90;;;;;;5012836;28;20118;-16
2024/01/26 00:35:33;;;;;;;2.50;1.50;;;13.20;99.90;;;;;;5013556;28;20482;-16
2024/01/26 00:37:59;;;;;;;3.08;1.70;;;13.20;99.90;;;;;;5014568;28;20044;-17
2024/01/26 00:40:24;;;;;;;3.63;2.37;;;13.20;99.90;;;;;;5013982;28;20156;-16
2024/01/26 00:42:50;;;;;;;4.22;2.20;;;13.20;99.90;;;;;;5014212;28;20042;-17
2024/01/26 00:45:16;;;;;;;3.80;2.37;;;13.10;99.90;;;;;;5016604;28;20029;-17
2024/01/26 00:47:42;;;;;;;3.35;2.28;;;13.10;99.90;;;;;;5001716;28;20662;-17
2024/01/26 00:50:07;;;;;;;4.30;2.40;;;13.10;99.90;;;;;;5011319;28;20421;-17
2024/01/26 00:52:33;;;;;;;5.15;2.90;;;13.10;99.90;;;;;;4992696;28;20079;-16
2024/01/26 00:54:59;;;;;;;5.37;2.60;;;13.20;99.90;;;;;;5012373;28;20277;-16
2024/01/26 00:57:25;;;;;;;4.22;2.78;;;13.10;99.90;;;;;;5014598;28;20037;-16
2024/01/26 00:59:51;;;;;;;3.60;2.20;;;13.20;99.90;;;;;;4980139;28;20056;-17
2024/01/26 01:02:16;;;;;;;4.60;2.53;;;13.10;99.90;;;;;;5010404;28;20112;-17
2024/01/26 01:04:42;;;;;;;4.35;2.63;;;13.10;99.90;;;;;;5010700;28;20037;-16
2024/01/26 01:07:08;;;;;;;3.90;2.23;;;13.20;99.90;;;;;;4966348;28;20046;-17
2024/01/26 01:09:34;;;;;;;3.63;2.10;;;13.20;99.90;;;;;;5012321;28;20141;-16
2024/01/26 01:12:00;;;;;;;4.53;2.78;;;13.20;99.90;;;;;;4978162;28;20033;-17
2024/01/26 01:14:28;;;;;;;4.70;2.60;;;13.20;99.90;;;;;;5014298;28;20052;-17
2024/01/26 01:16:56;;;;;;;4.13;2.65;;;13.20;99.90;;;;;;4996595;28;20539;-17
2024/01/26 01:19:22;;;;;;;3.55;2.13;;;13.20;99.90;;;;;;5012497;28;20449;-17
2024/01/26 01:21:48;;;;;;;3.95;2.58;;;13.20;99.90;;;;;;4997819;28;20052;-17
2024/01/26 01:24:14;;;;;;;4.20;2.57;;;13.20;99.90;;;;;;5012687;28;20034;-17
2024/01/26 01:26:39;;;;;;;5.22;2.60;;;13.20;99.90;;;;;;4993715;28;20029;-17
2024/01/26 01:29:06;;;;;;;4.57;2.50;;;13.20;99.90;;;;;;4977926;28;20046;-17
2024/01/26 01:31:32;;;;;;;4.00;2.40;;;13.30;99.90;;;;;;4993321;28;20284;-17
2024/01/26 01:33:58;;;;;;;4.50;2.90;;;13.20;99.90;;;;;;5012253;28;20534;-20
2024/01/26 01:36:23;;;;;;;3.85;2.30;;;13.20;99.90;;;;;;5014007;28;20048;-21
2024/01/26 01:38:49;;;;;;;4.77;2.77;;;13.30;99.90;;;;;;5015146;28;20034;-20
2024/01/26 01:41:15;;;;;;;3.85;2.50;;;13.30;99.90;;;;;;5011347;28;20640;-18
2024/01/26 01:43:41;;;;;;;3.40;2.37;;;13.20;99.90;;;;;;4999265;28;20457;-19
2024/01/26 01:46:07;;;;;;;3.80;2.40;;;13.30;99.90;;;;;;5010642;28;20041;-17
2024/01/26 01:48:33;;;;;;;4.18;2.70;;;13.30;99.90;;;;;;4995864;28;20344;-18
2024/01/26 01:50:59;;;;;;;4.93;3.30;;;13.30;99.90;;;;;;5012721;28;20038;-18
2024/01/26 01:53:25;;;;;;;4.68;2.90;;;13.40;99.90;;;;;;5013474;28;20065;-17
2024/01/26 01:55:52;;;;;;;4.27;2.77;;;13.30;99.90;;;;;;5012488;28;20042;-17
2024/01/26 01:58:19;;;;;;;4.40;2.40;;;13.40;99.90;;;;;;5014033;28;20107;-17
2024/01/26 02:00:46;;;;;;;5.38;2.78;;;13.40;99.90;;;;;;4998449;28;20104;-18
2024/01/26 02:03:12;;;;;;;4.05;2.50;;;13.40;99.90;;;;;;5003555;28;20560;-18
2024/01/26 02:05:37;;;;;;;3.75;2.10;;;13.40;99.90;;;;;;5017517;28;20038;-20
2024/01/26 02:08:04;;;;;;;3.73;2.07;;;13.40;99.90;;;;;;5015439;28;20030;-18
2024/01/26 02:10:29;;;;;;;4.10;2.40;;;13.40;99.90;;;;;;5017698;28;20041;-18
2024/01/26 02:12:55;;;;;;;3.90;2.30;;;13.40;99.90;;;;;;5005080;28;20079;-18
2024/01/26 02:15:21;;;;;;;3.40;2.20;;;13.50;99.90;;;;;;5017060;28;20043;-19
2024/01/26 02:17:47;;;;;;;3.45;2.47;;;13.50;99.90;;;;;;5017723;28;20394;-19
2024/01/26 02:20:13;;;;;;;3.50;2.10;;;13.50;99.90;;;;;;4970404;28;20357;-18
2024/01/26 02:22:38;;;;;;;2.58;1.70;;;13.50;99.90;;;;;;5016810;28;20046;-18
2024/01/26 02:25:05;;;;;;;3.33;1.80;;;13.50;99.90;;;;;;5013017;28;20374;-18
2024/01/26 02:27:32;;;;;;;3.70;2.10;;;13.50;99.90;;;;;;4997952;28;20037;-19
2024/01/26 02:29:57;;;;;;;3.53;1.90;;;13.50;99.90;;;;;;5001677;28;20709;-18
2024/01/26 02:32:23;;;;;;;3.93;2.20;;;13.50;99.90;;;;;;5017819;28;20034;-17
2024/01/26 02:34:49;;;;;;;5.88;2.08;;;13.50;99.90;;;;;;5015788;28;20033;-18
2024/01/26 02:37:14;;;;;;;2.97;1.87;;;13.50;99.90;;;;;;5002056;28;20029;-18
2024/01/26 02:39:40;;;;;;;2.65;1.80;;;13.50;99.90;;;;;;5017265;28;20485;-19
2024/01/26 02:42:06;;;;;;;2.13;1.40;;;13.50;99.90;;;;;;4997743;28;20612;-17
2024/01/26 02:44:33;;;;;;;2.63;1.70;;;13.50;99.90;;;;;;5016314;28;20040;-22
2024/01/26 02:46:59;;;;;;;2.70;1.60;;;13.50;99.90;;;;;;5017068;28;20452;-24
2024/01/26 02:49:25;;;;;;;2.40;1.60;;;13.50;99.90;;;;;;5014823;28;20045;-21
2024/01/26 02:51:51;;;;;;;3.15;1.70;;;13.50;99.90;;;;;;5001243;28;20045;-20
2024/01/26 02:54:17;;;;;;;3.27;1.90;;;13.50;99.90;;;;;;5017407;28;20034;-20
2024/01/26 02:56:42;;;;;;;3.13;1.98;;;13.50;99.90;;;;;;4990809;28;20131;-22
2024/01/26 02:59:08;;;;;;;3.50;2.20;;;13.50;99.90;;;;;;5017423;28;20246;-23
2024/01/26 03:01:33;;;;;;;4.10;2.30;;;13.40;99.90;;;;;;5013088;28;20308;-22
2024/01/26 03:03:59;;;;;;;4.50;2.30;;;13.40;99.90;;;;;;5012357;28;20030;-20
2024/01/26 03:06:25;;;;;;;4.47;2.08;;;12.70;99.90;;;;;;5014577;28;20038;-23
2024/01/26 03:08:51;;;;;;;3.35;1.95;;;13.40;99.90;;;;;;5015954;28;20588;-23
2024/01/26 03:11:17;;;;;;;4.27;2.20;;;13.40;99.90;;;;;;5010102;28;20113;-22
2024/01/26 03:13:42;;;;;;;3.92;2.33;;;13.40;99.90;;;;;;4985794;28;20037;-22
2024/01/26 03:16:09;;;;;;;5.00;2.27;;;13.40;99.90;;;;;;5017245;28;20029;-20
2024/01/26 03:18:36;;;;;;;4.68;2.33;;;13.30;99.90;;;;;;5005298;28;20108;-21
2024/01/26 03:21:01;;;;;;;3.58;2.10;;;13.40;99.90;;;;;;5014768;28;20049;-20
2024/01/26 03:23:27;;;;;;;4.73;2.83;;;13.40;99.90;;;;;;5014519;28;20034;-24
2024/01/26 03:25:53;;;;;;;5.13;2.80;;;13.40;99.90;;;;;;5001775;28;20520;-20
2024/01/26 03:28:18;;;;;;;5.28;2.85;;;13.40;99.90;;;;;;5012112;28;20060;-21
2024/01/26 03:30:44;;;;;;;4.60;2.37;;;13.50;99.90;;;;;;5012855;28;20053;-21
2024/01/26 03:33:10;;;;;;;4.85;2.80;;;13.50;99.90;;;;;;5012596;28;20541;-21
2024/01/26 03:35:36;;;;;;;4.40;2.83;;;13.50;99.90;;;;;;5012730;28;20041;-25
2024/01/26 03:38:02;;;;;;;3.97;2.67;;;13.50;99.90;;;;;;4999041;28;20124;-21
2024/01/26 03:40:28;;;;;;;4.83;3.10;;;13.60;99.90;;;;;;5003698;28;20525;-23
2024/01/26 03:42:54;;;;;;;4.10;2.70;;;13.50;99.90;;;;;;4995940;28;20041;-20
2024/01/26 03:45:20;;;;;;;3.97;2.60;;;13.50;99.90;;;;;;5012945;28;20065;-21
2024/01/26 03:47:45;;;;;;;4.57;2.87;;;13.50;99.90;;;;;;5011864;28;20564;-22
2024/01/26 03:50:12;;;;;;;4.85;2.60;;;13.60;99.90;;;;;;5017056;28;20034;-23
2024/01/26 03:52:37;;;;;;;3.30;2.20;;;13.60;99.90;;;;;;4982756;28;20468;-21
2024/01/26 03:55:06;;;;;;;4.95;3.03;;;13.60;99.90;;;;;;5012189;28;20068;-22
2024/01/26 03:57:33;;;;;;;4.97;3.03;;;13.60;99.90;;;;;;5014746;28;20505;-22
2024/01/26 03:59:59;;;;;;;4.65;2.90;;;13.60;99.90;;;;;;5014541;28;20215;-21
2024/01/26 04:02:25;;;;;;;7.13;3.77;;;13.60;99.90;;;;;;5013576;28;20553;-21
2024/01/26 04:04:51;;;;;;;5.10;3.20;;;13.60;99.90;;;;;;5012155;28;20124;-17
2024/01/26 04:07:17;;;;;;;5.07;3.33;;;13.60;99.90;;;;;;5013051;28;20429;-19
2024/01/26 04:09:42;;;;;;;5.90;3.70;;;13.60;99.90;;;;;;5015891;28;20032;-18
2024/01/26 04:12:08;;;;;;;5.47;3.40;;;13.60;99.90;;;;;;5002362;28;20033;-19
2024/01/26 04:14:34;;;;;;;6.18;3.55;;;13.50;99.90;;;;;;4980868;28;20080;-18
2024/01/26 04:17:00;;;;;;;5.83;3.60;;;13.50;99.90;;;;;;5013958;28;20038;-18
2024/01/26 04:19:25;;;;;;;7.83;4.33;;;13.50;99.90;;;;;;5012571;28;20036;-18
2024/01/26 04:21:52;;;;;;;6.68;4.25;;;13.50;99.90;;;;;;4996740;28;20045;-18
2024/01/26 04:24:18;;;;;;;6.75;4.35;;;13.40;99.90;;;;;;4979817;28;20123;-18
2024/01/26 04:26:44;;;;;;;8.40;4.53;;;13.40;99.90;;;;;;5011802;28;20038;-18
2024/01/26 04:29:09;;;;;;;7.70;4.50;;;13.40;99.90;;;;;;4998125;28;20417;-18
2024/01/26 04:31:44;;;;;;;6.85;4.57;;;13.30;99.90;;;;;;4997233;28;20328;-17
2024/01/26 04:34:11;;;;;;;7.30;4.05;;;13.30;99.90;;;;;;4994235;28;20029;-17
2024/01/26 04:36:36;;;;;;;7.97;3.77;;;13.30;99.90;;;;;;4997881;28;20463;-17
2024/01/26 04:39:02;;;;;;;6.07;3.70;;;13.30;99.90;;;;;;5012271;28;20034;-16
2024/01/26 04:41:29;;;;;;;5.43;3.40;;;13.20;99.90;;;;;;5010392;28;20325;-19
2024/01/26 04:43:55;;;;;;;6.03;3.23;;;13.20;99.90;;;;;;5012423;28;20471;-17
2024/01/26 04:46:21;;;;;;;6.35;3.55;;;13.20;99.90;;;;;;5015551;28;20277;-18
2024/01/26 04:48:47;;;;;;;7.43;3.65;;;13.20;99.90;;;;;;5010095;28;20386;-16
2024/01/26 04:51:12;;;;;;;8.02;3.83;;;13.20;99.90;;;;;;4998908;28;20072;-17
2024/01/26 04:53:38;;;;;;;6.73;4.17;;;13.20;99.90;;;;;;5013885;28;20042;-19
2024/01/26 04:56:04;;;;;;;5.78;3.60;;;13.20;99.90;;;;;;4996477;28;20042;-17
2024/01/26 04:58:30;;;;;;;6.30;3.60;;;13.20;99.90;;;;;;4994837;28;20120;-17
2024/01/26 05:00:55;;;;;;;6.22;3.83;;;13.20;99.90;;;;;;5014497;28;20728;-17
2024/01/26 05:03:21;;;;;;;6.93;4.10;;;13.80;99.90;;;;;;5011733;28;20026;-18
2024/01/26 05:05:47;;;;;;;7.07;3.40;;;13.20;99.90;;;;;;5014454;28;20034;-18
2024/01/26 05:08:12;;;;;;;9.07;4.53;;;12.60;99.90;;;;;;4979872;28;20068;-15
2024/01/26 05:10:38;;;;;;;10.05;5.68;;;13.20;99.90;;;;;;5012442;28;20044;-15
2024/01/26 05:13:04;;;;;;;6.43;3.93;;;13.20;99.90;;;;;;5010580;28;20042;-14
2024/01/26 05:15:29;;;;;;;7.53;4.47;;;13.20;99.90;;;;;;5010595;28;20038;-18
2024/01/26 05:17:55;;;;;;;5.25;3.38;;;13.10;99.90;;;;;;5011202;28;20636;-18
2024/01/26 05:20:22;;;;;;;7.70;4.40;;;13.10;99.90;;;;;;5011089;28;20041;-18
2024/01/26 05:22:48;;;;;;;8.55;4.80;;;13.10;99.90;;;;;;5000511;28;20524;-17
2024/01/26 05:25:14;;;;;;;8.07;4.55;;;13.10;99.90;;;;;;5011766;28;20042;-18
2024/01/26 05:27:41;;;;;;;8.53;4.43;;;13.10;99.90;;;;;;5013729;28;20477;-19
2024/01/26 05:30:07;;;;;;;8.05;4.53;;;13.10;99.90;;;;;;4996202;28;20037;-18
2024/01/26 05:32:33;;;;;;;7.25;4.50;;;13.10;99.90;;;;;;5011467;28;20477;-18
2024/01/26 05:34:59;;;;;;;8.47;4.70;;;13.10;99.90;;;;;;5014092;28;20037;-17
2024/01/26 05:37:24;;;;;;;10.85;4.75;;;13.00;99.90;;;;;;5013748;28;20034;-16
2024/01/26 05:39:50;;;;;;;7.90;4.50;;;13.00;99.90;;;;;;5007275;28;20529;-17
2024/01/26 05:42:16;;;;;;;8.00;5.00;;;13.00;99.90;;;;;;5017290;28;20071;-18
2024/01/26 05:44:41;;;;;;;8.70;5.23;;;13.00;99.90;;;;;;5006895;28;20095;-20
2024/01/26 05:47:07;;;;;;;6.80;4.40;;;13.00;99.90;;;;;;5018523;28;20037;-18
2024/01/26 05:49:33;;;;;;;7.33;4.57;;;13.00;99.90;;;;;;5001860;28;20557;-19
2024/01/26 05:51:59;;;;;;;7.68;4.70;;;13.00;99.90;;;;;;4999408;28;20072;-17
2024/01/26 05:54:25;;;;;;;7.88;4.68;;;13.00;99.90;;;;;;5011391;28;20513;-18
2024/01/26 05:56:51;;;;;;;7.80;5.07;;;13.00;99.90;;;;;;5004140;28;20052;-17
2024/01/26 05:59:16;;;;;;;13.20;5.30;;;13.00;99.90;;;;;;5003485;28;20272;-19
2024/01/26 06:01:42;;;;;;;8.27;4.95;;;13.00;99.90;;;;;;5015824;28;20041;-18
2024/01/26 06:04:08;;;;;;;7.27;4.23;;;13.00;99.90;;;;;;5000019;28;20049;-18
2024/01/26 06:06:34;;;;;;;6.47;4.15;;;13.00;99.90;;;;;;5001045;28;20029;-20
2024/01/26 06:08:59;;;;;;;10.77;5.20;;;13.00;99.90;;;;;;5014237;28;20048;-18
2024/01/26 06:11:25;;;;;;;7.32;4.20;;;;;;;;;;5017552;28;20108;-19
2024/01/26 06:13:51;;;;;;;8.30;4.03;;;12.40;99.90;;;;;;5014969;28;20038;-15
2024/01/26 06:16:17;;;;;;;6.93;4.10;;;13.00;99.90;;;;;;5014842;28;20464;-15
2024/01/26 06:18:46;;;;;;;8.00;4.00;;;13.00;99.90;;;;;;5017461;28;20065;-15
2024/01/26 06:21:12;;;;;;;7.90;4.70;;;13.00;99.90;;;;;;5017955;28;20033;-15
2024/01/26 06:23:40;;;;;;;5.67;3.40;;;13.00;99.90;;;;;;4999234;28;20413;-16
2024/01/26 06:26:06;;;;;;;6.10;3.60;;;13.00;99.90;;;;;;5015505;28;20098;-15
2024/01/26 06:28:33;;;;;;;7.57;4.30;;;13.00;99.90;;;;;;5016081;28;20128;-15
2024/01/26 06:30:59;;;;;;;7.85;4.20;;;13.00;99.90;;;;;;5014277;28;21188;-15
2024/01/26 06:33:24;;;;;;;7.25;4.40;;;13.00;99.90;;;;;;5016484;28;20588;-17
2024/01/26 06:35:50;;;;;;;8.13;4.73;;;13.00;99.90;;;;;;5016677;28;20112;-15
2024/01/26 06:38:16;;;;;;;6.90;3.90;;;13.00;99.90;;;;;;5002045;28;20390;-15
2024/01/26 06:40:42;;;;;;;7.90;4.17;;;13.00;99.90;;;;;;4999277;28;20033;-16
2024/01/26 06:43:08;;;;;;;6.50;3.63;;;13.00;99.90;;;;;;5013342;28;20057;-15
2024/01/26 06:45:34;;;;;;;6.93;2.97;;;13.00;99.90;;;;;;5015447;28;20026;-15
2024/01/26 06:48:00;;;;;;;5.87;3.30;;;13.00;99.90;;;;;;5017452;28;20766;-15
2024/01/26 06:50:26;;;;;;;5.78;3.00;;;13.00;99.90;;;;;;4999496;28;20075;-15
2024/01/26 06:52:52;;;;;;;6.30;3.63;;;13.00;99.90;;;;;;5014902;28;20489;-15
2024/01/26 06:55:18;;;;;;;6.10;3.30;;;13.00;99.90;;;;;;5002615;28;20026;-15
2024/01/26 06:57:43;;;;;;;5.57;3.22;;;13.00;99.90;;;;;;5002851;28;20643;-16
2024/01/26 07:00:10;;;;;;;5.88;3.30;;;13.00;99.90;;;;;;5002137;28;20045;-16
2024/01/26 07:02:36;;;;;;;6.20;2.80;;;13.10;99.90;;;;;;5013224;28;20045;-16
2024/01/26 07:05:03;;;;;;;4.97;3.10;;;13.10;99.90;;;;;;5000503;28;20059;-15
2024/01/26 07:07:28;;;;;;;5.35;3.05;;;13.10;99.90;;;;;;5013627;28;20242;-16
2024/01/26 07:09:54;;;;;;;4.68;3.03;;;13.10;99.90;;;;;;5017122;28;20474;-16
2024/01/26 07:12:20;;;;;;;5.80;2.83;;;13.10;99.90;;;;;;5013209;28;20359;-16
2024/01/26 07:14:45;;;;;;;6.15;2.63;;;13.10;99.90;;;;;;5002889;28;20129;-16
2024/01/26 07:17:11;;;;;;;4.43;2.40;;;13.10;99.90;;;;;;5014916;28;20037;-15
2024/01/26 07:19:37;;;;;;;4.72;2.30;;;13.10;99.90;;;;;;5012959;28;20868;-15
2024/01/26 07:22:03;;;;;;;4.63;2.60;;;13.10;99.90;;;;;;4987925;28;20072;-15
2024/01/26 07:24:29;;;;;;;4.40;2.53;;;13.10;99.90;;;;;;5012341;28;20485;-15
2024/01/26 07:26:54;;;;;;;3.97;2.27;;;13.20;99.90;;;;;;5001110;28;20490;-15
2024/01/26 07:29:20;;;;;;;4.53;2.50;;;13.20;99.90;;;;;;5014692;28;20045;-16
2024/01/26 07:31:46;;;;;;;6.30;2.70;;;13.20;99.90;;;;;;5014235;28;20409;-16
2024/01/26 07:34:12;;;;;;;4.90;2.78;;;13.20;99.90;;;;;;4985362;28;20041;-16
2024/01/26 07:36:38;;;;;;;4.35;2.60;;;13.20;99.90;;;;;;4980806;28;20108;-15
2024/01/26 07:39:07;;;;;;;4.50;2.57;;;13.00;99.90;;;;;;5015146;28;20039;-16
2024/01/26 07:41:33;;;;;;;4.32;2.30;;;13.30;99.90;;;;;;5013124;28;20048;-15
2024/01/26 07:44:02;;;;;;;5.28;2.67;;;13.40;99.90;;;;;;5011657;28;20025;-15
2024/01/26 07:46:28;;;;;;;3.80;2.40;;;13.10;99.90;;;;;;5014121;28;20057;-16
2024/01/26 07:48:54;;;;;;;3.90;2.50;;;13.40;99.90;;;;;;5000234;28;20180;-15
2024/01/26 07:51:19;;;;;;;3.65;2.50;;;13.40;99.90;;;;;;4981450;28;20087;-15
2024/01/26 07:53:45;;;;;;;5.57;2.43;;;13.50;99.90;;;;;;5010699;28;20557;-16
2024/01/26 07:56:11;;;;;;;4.28;2.20;;;13.50;99.90;;;;;;5001546;28;20401;-15
2024/01/26 07:58:36;;;;;;;5.20;2.63;;;13.50;99.90;;;;;;5013914;28;20458;-15
2024/01/26 08:01:02;;;;;;;5.18;2.65;;;13.50;99.90;;;;;;4999869;28;20049;-18
2024/01/26 08:03:30;;;;;;;4.87;2.97;;;13.50;99.90;;;;;;5012973;28;20494;-16
2024/01/26 08:05:56;;;;;;;4.85;2.88;;;13.50;99.90;;;;;;4999605;28;20361;-16
2024/01/26 08:08:22;;;;;;;3.63;2.58;;;13.60;99.90;;;;;;5013543;28;20120;-15
2024/01/26 08:10:48;;;;;;;4.40;2.50;;;13.60;99.90;;;;;;5011234;28;20045;-15
2024/01/26 08:13:13;;;;;;;3.95;2.13;;;13.60;99.90;;;;;;5011847;28;20029;-15
2024/01/26 08:15:39;;;;;;;3.97;2.23;;;13.60;99.90;;;;;;5009531;28;20528;-16
2024/01/26 08:18:05;;;;;;;5.03;2.30;;;13.60;99.90;;;;;;4976945;28;20037;-16
2024/01/26 08:20:30;;;;;;;3.38;2.05;;;13.60;99.90;;;;;;4998492;28;20065;-16
2024/01/26 08:22:56;;;;;;;3.80;2.10;;;13.60;99.90;;;;;;5007898;28;20066;-16
2024/01/26 08:25:24;;;;;;;4.43;2.10;;;13.60;99.90;;;;;;5012133;28;20104;-17
2024/01/26 08:27:51;;;;;;;8.43;2.97;;;13.60;99.90;;;;;;4995554;28;20041;-17
2024/01/26 08:30:17;;;;;;;3.85;2.15;;;13.60;99.90;;;;;;5012845;28;20038;-17
2024/01/26 08:32:45;;;;;;;3.80;2.15;;;13.60;99.90;;;;;;5015147;28;20061;-17
2024/01/26 08:35:11;;;;;;;4.22;2.30;;;13.60;99.90;;;;;;4998105;28;20057;-19
2024/01/26 08:37:38;;;;;;;4.93;2.30;;;13.60;99.90;;;;;;5011772;28;20121;-20
2024/01/26 08:40:06;;;;;;;3.60;2.03;;;13.60;99.90;;;;;;5005910;28;20032;-19
2024/01/26 08:42:35;;;;;;;3.72;2.20;;;13.60;99.90;;;;;;5008748;28;20129;-19
2024/01/26 08:45:02;;;;;;;3.78;2.30;;;13.70;99.90;;;;;;5009293;28;20081;-21
2024/01/26 08:47:29;;;;;;;4.82;2.03;;;13.70;99.90;;;;;;5011100;28;20034;-20
2024/01/26 08:49:55;;;;;;;3.15;2.10;;;13.70;99.90;;;;;;5007797;28;20034;-20
2024/01/26 08:52:21;;;;;;;4.20;1.90;;;13.70;99.90;;;;;;4994855;28;20410;-22
2024/01/26 08:54:47;;;;;;;3.55;1.73;;;13.70;99.90;;;;;;4993338;28;20049;-19
2024/01/26 08:57:13;;;;;;;3.58;2.25;;;13.70;99.90;;;;;;5008748;28;20041;-19
2024/01/26 08:59:40;;;;;;;2.53;1.63;;;13.70;99.90;;;;;;5010588;28;20053;-24
2024/01/26 09:02:07;;;;;;;3.15;1.95;;;13.70;99.90;;;;;;4994823;28;20044;-20
2024/01/26 09:04:33;;;;;;;3.95;2.03;;;13.70;99.90;;;;;;5010511;28;20394;-20
2024/01/26 09:06:58;;;;;;;2.67;1.50;;;13.80;99.90;;;;;;5013467;28;20040;-20
2024/01/26 09:09:24;;;;;;;4.23;2.13;;;13.80;99.90;;;;;;4993330;28;20431;-21
2024/01/26 09:11:51;;;;;;;4.20;1.92;;;13.80;99.90;;;;;;5012537;28;20029;-23
2024/01/26 09:14:17;;;;;;;3.13;1.90;;;13.80;99.90;;;;;;5009687;28;20137;-21
2024/01/26 09:16:43;;;;;;;4.15;2.17;;;13.80;99.90;;;;;;4997059;28;20189;-20
2024/01/26 09:19:10;;;;;;;2.67;1.65;;;13.80;99.90;;;;;;5009914;28;20132;-20
2024/01/26 09:21:36;;;;;;;3.97;2.08;;;13.80;99.90;;;;;;5009877;28;20034;-22
2024/01/26 09:24:02;;;;;;;3.47;2.00;;;13.80;99.90;;;;;;4997758;28;20397;-20
2024/01/26 09:26:28;;;;;;;4.10;1.85;;;13.90;99.90;;;;;;4993750;28;20042;-20
2024/01/26 09:28:53;;;;;;;3.15;1.80;;;13.80;99.90;;;;;;4995415;28;20050;-21
2024/01/26 09:31:19;;;;;;;4.67;1.80;;;13.80;99.90;;;;;;4994849;28;20625;-19
2024/01/26 09:33:45;;;;;;;3.95;2.00;;;13.70;99.90;;;;;;5008606;28;20117;-20
2024/01/26 09:36:11;;;;;;;5.13;2.00;;;13.70;99.90;;;;;;4982871;28;20046;-21
2024/01/26 09:38:36;;;;;;;4.10;1.80;;;13.70;99.90;;;;;;5012538;28;20361;-20
2024/01/26 09:41:02;;;;;;;5.13;1.87;;;13.60;99.90;;;;;;4994826;28;20105;-19
2024/01/26 09:43:28;;;;;;;5.00;1.73;;;13.60;99.90;;;;;;5010836;28;20265;-20
2024/01/26 09:45:54;;;;;;;2.85;1.48;;;13.50;99.90;;;;;;5011076;28;20038;-18
2024/01/26 09:48:21;;;;;;;2.60;1.40;;;13.50;99.90;;;;;;4993349;28;20030;-17
2024/01/26 09:50:53;;;;;;;3.72;1.75;;;13.40;99.90;;;;;;4991404;28;20129;-18
2024/01/26 09:53:19;;;;;;;4.82;1.60;;;13.40;99.90;;;;;;5009987;28;20119;-17
2024/01/26 09:55:48;;;;;;;4.17;1.63;;;13.40;99.90;;;;;;5008973;28;20105;-17
2024/01/26 09:58:14;;;;;;;3.42;1.42;;;13.30;99.90;;;;;;5009434;28;20065;-18
2024/01/26 10:00:42;;;;;;;4.07;1.48;;;13.40;99.90;;;;;;5008601;28;20045;-17
2024/01/26 10:03:07;;;;;;;3.80;1.40;;;13.40;99.90;;;;;;5012245;28;20469;-17
2024/01/26 10:05:34;;;;;;;4.57;1.40;;;13.40;99.90;;;;;;5012385;28;20435;-17
2024/01/26 10:08:00;;;;;;;4.38;1.77;;;13.50;99.90;;;;;;5012110;28;20125;-17
2024/01/26 10:10:25;;;;;;;3.13;1.40;;;13.60;99.90;;;;;;4996556;28;20120;-17
2024/01/26 10:12:51;;;;;;;3.13;1.30;;;13.80;99.90;;;;;;4995122;28;20674;-19
2024/01/26 10:15:18;;;;;;;4.00;1.37;;;14.10;99.90;;;;;;4991431;28;20112;-19
2024/01/26 10:17:44;;;;;;;5.68;1.35;;;14.40;99.90;;;;;;5006818;28;20037;-18
2024/01/26 10:20:15;;;;;;;4.90;1.40;;;14.60;99.90;;;;;;5004946;28;20615;-18
2024/01/26 10:22:45;;;;;;;3.77;1.40;;;14.70;99.90;;;;;;5009825;28;20038;-19
2024/01/26 10:25:12;;;;;;;4.28;1.13;;;14.60;99.90;;;;;;5014864;28;20122;-21
2024/01/26 10:27:37;;;;;;;6.78;1.33;;;14.70;99.90;;;;;;5012946;28;20375;-25
2024/01/26 10:30:04;;;;;;;4.05;1.05;;;14.70;99.90;;;;;;5015248;28;20037;-22
2024/01/26 10:32:31;;;;;;;3.63;0.93;;;14.60;99.90;;;;;;4998709;28;20044;-22
2024/01/26 10:34:59;;;;;;;4.47;1.00;;;14.50;99.90;;;;;;5016375;28;20126;-23
2024/01/26 10:37:32;;;;;;;3.22;1.25;;;14.40;99.90;;;;;;5014666;28;20068;-21
2024/01/26 10:39:59;;;;;;;1.40;0.73;;;14.30;99.90;;;;;;4996475;28;20034;-22
2024/01/26 10:42:26;;;;;;;3.13;1.13;;;14.20;99.90;;;;;;5001063;28;20026;-21
2024/01/26 10:44:53;;;;;;;2.10;0.90;;;14.20;99.90;;;;;;5011101;28;20415;-26
2024/01/26 10:47:20;;;;;;;2.08;0.75;;;14.30;99.90;;;;;;5014960;28;20359;-25
2024/01/26 10:49:49;;;;;;;2.53;0.90;;;14.40;99.90;;;;;;5000872;28;20219;-24
2024/01/26 10:52:20;;;;;;;1.35;0.70;;;14.50;99.90;;;;;;5013576;28;20053;-23
2024/01/26 10:54:50;;;;;;;2.25;0.80;;;14.50;99.90;;;;;;5012672;28;20092;-20
2024/01/26 10:57:17;;;;;;;1.17;0.60;;;12.10;99.90;;;;;;4992821;28;20029;-19
2024/01/26 10:59:44;;;;;;;2.00;0.68;;;14.70;99.90;;;;;;4996771;28;20644;-20
2024/01/26 11:02:20;;;;;;;1.42;0.55;;;14.70;99.90;;;;;;5000539;28;20053;-20
2024/01/26 11:04:46;;;;;;;1.35;0.50;;;14.80;99.90;;;;;;5005133;28;20037;-21
2024/01/26 11:07:17;;;;;;;2.15;0.80;;;14.80;99.90;;;;;;5015896;28;20486;-19
2024/01/26 11:09:46;;;;;;;1.40;0.70;;;15.00;99.90;;;;;;5012849;28;20501;-20
2024/01/26 11:12:22;;;;;;;2.47;0.70;;;15.30;99.90;;;;;;5007788;28;20045;-20
2024/01/26 11:15:15;;;;;;;1.98;0.75;;;15.70;99.90;;;;;;5009726;28;20092;-21
2024/01/26 11:17:44;;;;;;;2.08;0.80;;;16.10;99.90;;;;;;4981633;28;20041;-20
2024/01/26 11:20:18;;;;;;;1.83;0.80;;;16.60;99.90;;;;;;4994911;28;20588;-21
2024/01/26 11:22:44;;;;;;;1.17;0.60;;;17.00;99.90;;;;;;5011240;28;20028;-21
2024/01/26 11:25:21;;;;;;;1.98;0.80;;;17.40;99.90;;;;;;5013572;28;20056;-19
2024/01/26 11:27:48;;;;;;;2.83;0.60;;;17.90;99.90;;;;;;4975047;28;20041;-21
2024/01/26 11:30:24;;;;;;;1.58;1.10;;;18.20;99.90;;;;;;5011774;28;20103;-21
2024/01/26 11:32:50;;;;;;;2.25;0.70;;;18.50;99.90;;;;;;5013678;28;20041;-20
2024/01/26 11:35:16;;;;;;;1.63;0.80;;;18.90;99.90;;;;;;5007819;28;20042;-19
2024/01/26 11:37:42;;;;;;;2.38;0.65;;;19.20;99.90;;;;;;5010985;28;20037;-20
2024/01/26 11:40:10;;;;;;;2.08;0.70;;;19.40;99.90;;;;;;5014954;28;20273;-21
2024/01/26 11:42:37;;;;;;;2.28;0.70;;;19.60;99.90;;;;;;5010638;28;20087;-20
2024/01/26 11:45:08;;;;;;;2.10;0.60;;;19.80;99.90;;;;;;4996841;28;20042;-21
2024/01/26 11:47:38;;;;;;;2.27;0.70;;;19.90;99.90;;;;;;5012158;28;20042;-20
2024/01/26 11:50:08;;;;;;;3.45;0.98;;;20.00;99.90;;;;;;5012964;28;20406;-20
2024/01/26 11:52:37;;;;;;;2.08;0.75;;;20.20;99.90;;;;;;4962994;28;20037;-19
2024/01/26 11:55:08;;;;;;;2.67;0.80;;;20.30;99.90;;;;;;5010007;28;20033;-21
2024/01/26 11:57:33;;;;;;;1.98;0.68;;;20.50;99.90;;;;;;5010140;28;20053;-19
2024/01/26 12:00:00;;;;;;;2.23;0.90;;;20.60;99.90;;;;;;5013961;28;20361;-21
2024/01/26 12:02:26;;;;;;;3.78;0.90;;;20.70;99.90;;;;;;4999198;28;20128;-20
2024/01/26 12:04:52;;;;;;;1.85;0.77;;;20.80;99.90;;;;;;4977761;28;20135;-26
2024/01/26 12:07:18;;;;;;;4.37;0.93;;;21.00;99.90;;;;;;5009739;28;20169;-26
2024/01/26 12:09:44;;;;;;;3.20;0.60;;;21.10;99.90;;;;;;5008812;28;20029;-25
2024/01/26 12:12:11;;;;;;;2.30;0.90;;;21.20;99.90;;;;;;4999539;28;20029;-29
2024/01/26 12:14:37;;;;;;;3.73;0.87;;;21.30;99.90;;;;;;5013657;28;20041;-25
2024/01/26 12:17:03;;;;;;;2.30;0.80;;;21.30;99.90;;;;;;5012865;28;20095;-26
2024/01/26 12:19:29;;;;;;;2.80;0.70;;;21.20;99.90;;;;;;5010639;28;20030;-28
2024/01/26 12:21:57;;;;;;;2.70;0.90;;;21.20;99.90;;;;;;5008573;28;20045;-24
2024/01/26 12:24:23;;;;;;;1.20;0.68;;;21.10;99.90;;;;;;5009500;28;20418;-25
2024/01/26 12:26:50;;;;;;;2.95;0.70;;;20.90;99.90;;;;;;5011175;28;20029;-25
2024/01/26 12:29:15;;;;;;;3.72;0.80;;;20.80;99.90;;;;;;4994422;28;20059;-25
2024/01/26 12:31:41;;;;;;;1.27;0.50;;;20.60;99.90;;;;;;5009018;28;20549;-23
2024/01/26 12:34:14;;;;;;;1.92;0.70;;;20.30;99.90;;;;;;5001328;28;20383;-26
2024/01/26 12:36:40;;;;;;;1.17;0.60;;;20.10;99.90;;;;;;4991461;28;20053;-26
2024/01/26 12:39:06;;;;;;;3.27;0.70;;;20.00;99.90;;;;;;5012407;28;20649;-26
2024/01/26 12:41:32;;;;;;;2.03;0.75;;;19.90;99.90;;;;;;5009811;28;20478;-29
2024/01/26 12:43:59;;;;;;;2.33;0.60;;;19.70;99.90;;;;;;5007064;28;20372;-24